Terminal Aerodrome Forecast
Issued by NWS

Home | Current Version | Previous Version | Graphics & Text | Print | Product List | Glossary On
Versions: 1 2 3 4 5 6 7 8 9 10 11 12 13 14 15 16 17 18 19 20 21 22 23 24 25 26 27
000
FTUS43 KLOT 170311 AAA
TAFGYY
TAF AMD
KGYY 170311Z 1703/1724 16008KT P6SM SCT020 BKN070
     FM170500 18008KT P6SM VCTS BKN020 OVC040CB
     FM170700 19010KT P6SM SCT012 BKN040
      TEMPO 1709/1713 BKN012
     FM171300 24012G20KT P6SM SCT020 BKN035
     FM171700 26018G28KT P6SM BKN050=

USA.gov is the U.S. government's official web portal to all federal, state and local government web resources and services.